sensor_id;sensor_type;location;lat;lon;timestamp;pressure;altitude;pressure_sealevel;temperature;humidity
7660;BME280;3872;47.902;8.162;2023-05-23T00:01:35;91890.03;;;15.04;100.00
7660;BME280;3872;47.902;8.162;2023-05-23T00:04:02;91881.53;;;15.69;100.00
7660;BME280;3872;47.902;8.162;2023-05-23T00:06:29;91886.13;;;15.01;100.00
7660;BME280;3872;47.902;8.162;2023-05-23T00:08:57;91885.91;;;15.65;100.00
7660;BME280;3872;47.902;8.162;2023-05-23T00:11:23;91885.25;;;15.89;100.00
7660;BME280;3872;47.902;8.162;2023-05-23T00:13:51;91891.72;;;15.08;100.00
7660;BME280;3872;47.902;8.162;2023-05-23T00:16:18;91890.53;;;15.47;100.00
7660;BME280;3872;47.902;8.162;2023-05-23T00:18:45;91888.50;;;15.74;100.00
7660;BME280;3872;47.902;8.162;2023-05-23T00:21:12;91889.78;;;15.88;100.00
7660;BME280;3872;47.902;8.162;2023-05-23T00:23:39;91890.53;;;15.56;100.00
7660;BME280;3872;47.902;8.162;2023-05-23T00:26:07;91890.44;;;15.64;100.00
7660;BME280;3872;47.902;8.162;2023-05-23T00:28:35;91895.66;;;15.52;100.00
7660;BME280;3872;47.902;8.162;2023-05-23T00:31:02;91890.78;;;15.63;100.00
7660;BME280;3872;47.902;8.162;2023-05-23T00:33:29;91892.53;;;15.29;100.00
7660;BME280;3872;47.902;8.162;2023-05-23T00:35:57;91889.00;;;15.46;100.00
7660;BME280;3872;47.902;8.162;2023-05-23T00:38:24;91892.09;;;14.52;100.00
7660;BME280;3872;47.902;8.162;2023-05-23T00:40:51;91881.06;;;15.17;100.00
7660;BME280;3872;47.902;8.162;2023-05-23T00:43:19;91875.81;;;15.58;100.00
7660;BME280;3872;47.902;8.162;2023-05-23T00:45:47;91887.00;;;15.64;100.00
7660;BME280;3872;47.902;8.162;2023-05-23T00:48:14;91888.41;;;15.41;100.00
7660;BME280;3872;47.902;8.162;2023-05-23T00:50:41;91881.13;;;15.58;100.00
7660;BME280;3872;47.902;8.162;2023-05-23T00:53:08;91879.47;;;15.24;100.00
7660;BME280;3872;47.902;8.162;2023-05-23T00:55:35;91883.72;;;15.67;100.00
7660;BME280;3872;47.902;8.162;2023-05-23T00:58:01;91881.22;;;15.41;100.00
7660;BME280;3872;47.902;8.162;2023-05-23T01:00:29;91880.59;;;15.65;100.00
7660;BME280;3872;47.902;8.162;2023-05-23T01:02:58;91881.00;;;15.76;100.00
7660;BME280;3872;47.902;8.162;2023-05-23T01:05:25;91884.44;;;15.55;100.00
7660;BME280;3872;47.902;8.162;2023-05-23T01:07:53;91887.59;;;15.19;100.00
7660;BME280;3872;47.902;8.162;2023-05-23T01:10:23;91890.00;;;15.12;100.00
7660;BME280;3872;47.902;8.162;2023-05-23T01:12:57;91893.09;;;15.35;100.00
7660;BME280;3872;47.902;8.162;2023-05-23T01:15:37;91891.09;;;15.61;100.00
7660;BME280;3872;47.902;8.162;2023-05-23T01:18:07;91894.59;;;15.45;100.00
7660;BME280;3872;47.902;8.162;2023-05-23T01:20:39;91899.34;;;15.39;100.00
7660;BME280;3872;47.902;8.162;2023-05-23T01:23:18;91890.06;;;14.57;100.00
7660;BME280;3872;47.902;8.162;2023-05-23T01:26:09;91893.88;;;15.06;100.00
7660;BME280;3872;47.902;8.162;2023-05-23T01:28:44;91889.78;;;14.88;100.00
7660;BME280;3872;47.902;8.162;2023-05-23T01:31:12;91888.72;;;14.80;100.00
7660;BME280;3872;47.902;8.162;2023-05-23T01:33:39;91887.44;;;14.86;100.00
7660;BME280;3872;47.902;8.162;2023-05-23T01:36:06;91894.66;;;15.07;100.00
7660;BME280;3872;47.902;8.162;2023-05-23T01:38:34;91893.41;;;15.13;100.00
7660;BME280;3872;47.902;8.162;2023-05-23T01:41:00;91894.00;;;15.18;100.00
7660;BME280;3872;47.902;8.162;2023-05-23T01:43:27;91893.56;;;14.78;100.00
7660;BME280;3872;47.902;8.162;2023-05-23T01:45:55;91893.97;;;14.51;100.00
7660;BME280;3872;47.902;8.162;2023-05-23T01:48:24;91885.97;;;14.04;100.00
7660;BME280;3872;47.902;8.162;2023-05-23T01:50:53;91885.63;;;14.23;100.00
7660;BME280;3872;47.902;8.162;2023-05-23T01:53:22;91891.22;;;14.39;100.00
7660;BME280;3872;47.902;8.162;2023-05-23T01:55:50;91879.53;;;14.40;100.00
7660;BME280;3872;47.902;8.162;2023-05-23T01:58:17;91881.00;;;14.03;100.00
7660;BME280;3872;47.902;8.162;2023-05-23T02:00:44;91881.50;;;13.62;100.00
7660;BME280;3872;47.902;8.162;2023-05-23T02:03:13;91890.97;;;13.89;100.00
7660;BME280;3872;47.902;8.162;2023-05-23T02:05:40;91887.06;;;13.95;100.00
7660;BME280;3872;47.902;8.162;2023-05-23T02:08:06;91886.44;;;13.98;100.00
7660;BME280;3872;47.902;8.162;2023-05-23T02:10:36;91883.66;;;13.34;100.00
7660;BME280;3872;47.902;8.162;2023-05-23T02:13:02;91891.44;;;13.91;100.00
7660;BME280;3872;47.902;8.162;2023-05-23T02:15:29;91895.78;;;13.87;100.00
7660;BME280;3872;47.902;8.162;2023-05-23T02:17:57;91894.66;;;14.22;100.00
7660;BME280;3872;47.902;8.162;2023-05-23T02:20:24;91904.19;;;14.06;100.00
7660;BME280;3872;47.902;8.162;2023-05-23T02:22:51;91893.47;;;14.58;100.00
7660;BME280;3872;47.902;8.162;2023-05-23T02:25:17;91896.31;;;14.35;100.00
7660;BME280;3872;47.902;8.162;2023-05-23T02:27:44;91892.34;;;13.86;100.00
7660;BME280;3872;47.902;8.162;2023-05-23T02:30:11;91894.72;;;14.60;100.00
7660;BME280;3872;47.902;8.162;2023-05-23T02:32:38;91898.28;;;13.92;100.00
7660;BME280;3872;47.902;8.162;2023-05-23T02:35:05;91896.13;;;13.85;100.00
7660;BME280;3872;47.902;8.162;2023-05-23T02:37:33;91897.09;;;14.36;100.00
7660;BME280;3872;47.902;8.162;2023-05-23T02:40:00;91899.44;;;14.55;100.00
7660;BME280;3872;47.902;8.162;2023-05-23T02:42:26;91892.56;;;14.54;100.00
7660;BME280;3872;47.902;8.162;2023-05-23T02:44:53;91892.84;;;14.69;100.00
7660;BME280;3872;47.902;8.162;2023-05-23T02:47:19;91891.47;;;14.63;100.00
7660;BME280;3872;47.902;8.162;2023-05-23T02:49:47;91888.94;;;14.67;100.00
7660;BME280;3872;47.902;8.162;2023-05-23T02:52:14;91886.44;;;14.70;100.00
7660;BME280;3872;47.902;8.162;2023-05-23T02:54:42;91887.25;;;14.62;100.00
7660;BME280;3872;47.902;8.162;2023-05-23T02:57:09;91890.31;;;14.00;100.00
7660;BME280;3872;47.902;8.162;2023-05-23T02:59:38;91890.53;;;13.69;100.00
7660;BME280;3872;47.902;8.162;2023-05-23T03:02:05;91881.22;;;14.36;100.00
7660;BME280;3872;47.902;8.162;2023-05-23T03:04:32;91886.50;;;14.91;100.00
7660;BME280;3872;47.902;8.162;2023-05-23T03:06:58;91889.84;;;15.09;100.00
7660;BME280;3872;47.902;8.162;2023-05-23T03:09:25;91889.34;;;15.15;100.00
7660;BME280;3872;47.902;8.162;2023-05-23T03:11:52;91894.41;;;15.00;100.00
7660;BME280;3872;47.902;8.162;2023-05-23T03:14:19;91893.81;;;14.94;100.00
7660;BME280;3872;47.902;8.162;2023-05-23T03:16:47;91895.22;;;14.54;100.00
7660;BME280;3872;47.902;8.162;2023-05-23T03:19:14;91890.19;;;14.05;100.00
7660;BME280;3872;47.902;8.162;2023-05-23T03:21:40;91892.03;;;14.77;100.00
7660;BME280;3872;47.902;8.162;2023-05-23T03:24:08;91887.75;;;14.85;100.00
7660;BME280;3872;47.902;8.162;2023-05-23T03:26:34;91900.44;;;14.71;100.00
7660;BME280;3872;47.902;8.162;2023-05-23T03:29:03;91893.03;;;15.23;100.00
7660;BME280;3872;47.902;8.162;2023-05-23T03:31:29;91892.75;;;14.48;100.00
7660;BME280;3872;47.902;8.162;2023-05-23T03:33:56;91895.09;;;15.17;100.00
7660;BME280;3872;47.902;8.162;2023-05-23T03:36:22;91899.47;;;15.13;100.00
7660;BME280;3872;47.902;8.162;2023-05-23T03:38:52;91901.53;;;14.06;100.00
7660;BME280;3872;47.902;8.162;2023-05-23T03:41:19;91897.91;;;14.83;100.00
7660;BME280;3872;47.902;8.162;2023-05-23T03:43:46;91898.13;;;15.28;100.00
7660;BME280;3872;47.902;8.162;2023-05-23T03:46:14;91896.66;;;15.18;100.00
7660;BME280;3872;47.902;8.162;2023-05-23T03:48:40;91890.84;;;14.96;100.00
7660;BME280;3872;47.902;8.162;2023-05-23T03:51:07;91897.97;;;14.66;100.00
7660;BME280;3872;47.902;8.162;2023-05-23T03:53:34;91906.63;;;15.42;100.00
7660;BME280;3872;47.902;8.162;2023-05-23T03:56:01;91902.03;;;15.60;100.00
7660;BME280;3872;47.902;8.162;2023-05-23T03:58:28;91898.28;;;15.82;100.00
7660;BME280;3872;47.902;8.162;2023-05-23T04:00:59;91899.91;;;15.74;100.00
7660;BME280;3872;47.902;8.162;2023-05-23T04:03:29;91908.22;;;15.35;100.00
7660;BME280;3872;47.902;8.162;2023-05-23T04:05:57;91898.47;;;15.26;100.00
7660;BME280;3872;47.902;8.162;2023-05-23T04:08:23;91899.97;;;15.36;100.00
7660;BME280;3872;47.902;8.162;2023-05-23T04:10:50;91904.88;;;15.25;100.00
7660;BME280;3872;47.902;8.162;2023-05-23T04:13:17;91902.56;;;15.45;100.00
7660;BME280;3872;47.902;8.162;2023-05-23T04:15:45;91897.97;;;15.62;100.00
7660;BME280;3872;47.902;8.162;2023-05-23T04:18:12;91899.16;;;15.86;100.00
7660;BME280;3872;47.902;8.162;2023-05-23T04:20:41;91906.00;;;16.08;100.00
7660;BME280;3872;47.902;8.162;2023-05-23T04:23:07;91904.31;;;15.70;100.00
7660;BME280;3872;47.902;8.162;2023-05-23T04:25:37;91910.31;;;15.58;100.00
7660;BME280;3872;47.902;8.162;2023-05-23T04:28:16;91908.44;;;15.29;100.00
7660;BME280;3872;47.902;8.162;2023-05-23T04:30:43;91898.56;;;16.01;100.00
7660;BME280;3872;47.902;8.162;2023-05-23T04:33:11;91899.44;;;16.26;100.00
7660;BME280;3872;47.902;8.162;2023-05-23T04:35:38;91901.81;;;16.39;100.00
7660;BME280;3872;47.902;8.162;2023-05-23T04:38:07;91897.97;;;16.16;100.00
7660;BME280;3872;47.902;8.162;2023-05-23T04:40:34;91904.00;;;16.37;100.00
7660;BME280;3872;47.902;8.162;2023-05-23T04:43:19;91899.75;;;16.57;100.00
7660;BME280;3872;47.902;8.162;2023-05-23T04:45:48;91904.78;;;16.38;100.00
7660;BME280;3872;47.902;8.162;2023-05-23T04:48:36;91909.84;;;15.98;100.00
7660;BME280;3872;47.902;8.162;2023-05-23T04:51:03;91909.06;;;16.63;100.00
7660;BME280;3872;47.902;8.162;2023-05-23T04:53:36;91906.22;;;16.68;100.00
7660;BME280;3872;47.902;8.162;2023-05-23T04:56:05;91913.78;;;16.45;100.00
7660;BME280;3872;47.902;8.162;2023-05-23T04:58:35;91925.06;;;15.68;100.00
7660;BME280;3872;47.902;8.162;2023-05-23T05:01:04;91919.50;;;16.35;100.00
7660;BME280;3872;47.902;8.162;2023-05-23T05:03:31;91930.03;;;16.44;100.00
7660;BME280;3872;47.902;8.162;2023-05-23T05:05:58;91929.75;;;16.58;100.00
7660;BME280;3872;47.902;8.162;2023-05-23T05:08:26;91928.59;;;16.79;100.00
7660;BME280;3872;47.902;8.162;2023-05-23T05:10:54;91933.72;;;16.52;100.00
7660;BME280;3872;47.902;8.162;2023-05-23T05:13:21;91942.03;;;15.96;100.00
7660;BME280;3872;47.902;8.162;2023-05-23T05:15:50;91941.59;;;15.36;100.00
7660;BME280;3872;47.902;8.162;2023-05-23T05:18:17;91933.00;;;16.10;100.00
7660;BME280;3872;47.902;8.162;2023-05-23T05:20:44;91935.50;;;16.60;100.00
7660;BME280;3872;47.902;8.162;2023-05-23T05:23:12;91939.81;;;16.52;100.00
7660;BME280;3872;47.902;8.162;2023-05-23T05:25:39;91931.50;;;16.87;100.00
7660;BME280;3872;47.902;8.162;2023-05-23T05:28:07;91932.41;;;17.03;100.00
7660;BME280;3872;47.902;8.162;2023-05-23T05:30:43;91927.09;;;17.03;100.00
7660;BME280;3872;47.902;8.162;2023-05-23T05:33:10;91931.94;;;16.76;100.00
7660;BME280;3872;47.902;8.162;2023-05-23T05:35:37;91936.56;;;15.93;100.00
7660;BME280;3872;47.902;8.162;2023-05-23T05:38:04;91937.91;;;16.40;100.00
7660;BME280;3872;47.902;8.162;2023-05-23T05:40:32;91937.81;;;16.94;100.00
7660;BME280;3872;47.902;8.162;2023-05-23T05:43:00;91938.59;;;17.07;100.00
7660;BME280;3872;47.902;8.162;2023-05-23T05:45:28;91939.41;;;17.32;100.00
7660;BME280;3872;47.902;8.162;2023-05-23T05:47:54;91931.84;;;17.21;100.00
7660;BME280;3872;47.902;8.162;2023-05-23T05:50:23;91940.72;;;17.26;100.00
7660;BME280;3872;47.902;8.162;2023-05-23T05:52:49;91930.06;;;17.50;100.00
7660;BME280;3872;47.902;8.162;2023-05-23T05:55:16;91931.41;;;17.44;100.00
7660;BME280;3872;47.902;8.162;2023-05-23T05:57:45;91945.56;;;15.80;100.00
7660;BME280;3872;47.902;8.162;2023-05-23T06:00:14;91944.09;;;16.44;100.00
7660;BME280;3872;47.902;8.162;2023-05-23T06:02:51;91946.06;;;17.26;100.00
7660;BME280;3872;47.902;8.162;2023-05-23T06:05:32;91933.06;;;17.73;100.00
7660;BME280;3872;47.902;8.162;2023-05-23T06:07:59;91933.03;;;16.75;100.00
7660;BME280;3872;47.902;8.162;2023-05-23T06:10:26;91941.09;;;16.34;100.00
7660;BME280;3872;47.902;8.162;2023-05-23T06:12:52;91941.31;;;16.62;100.00
7660;BME280;3872;47.902;8.162;2023-05-23T06:15:19;91941.47;;;16.90;100.00
7660;BME280;3872;47.902;8.162;2023-05-23T06:17:46;91950.56;;;17.13;100.00
7660;BME280;3872;47.902;8.162;2023-05-23T06:20:14;91946.97;;;18.06;100.00
7660;BME280;3872;47.902;8.162;2023-05-23T06:22:43;91952.09;;;17.99;100.00
7660;BME280;3872;47.902;8.162;2023-05-23T06:25:09;91941.25;;;18.48;100.00
7660;BME280;3872;47.902;8.162;2023-05-23T06:27:36;91940.59;;;18.78;100.00
7660;BME280;3872;47.902;8.162;2023-05-23T06:30:04;91941.13;;;19.00;100.00
7660;BME280;3872;47.902;8.162;2023-05-23T06:32:31;91947.38;;;18.76;100.00
7660;BME280;3872;47.902;8.162;2023-05-23T06:34:57;91936.88;;;18.83;100.00
7660;BME280;3872;47.902;8.162;2023-05-23T06:37:25;91943.97;;;19.23;100.00
7660;BME280;3872;47.902;8.162;2023-05-23T06:39:51;91939.16;;;19.12;100.00
7660;BME280;3872;47.902;8.162;2023-05-23T06:42:18;91940.88;;;19.36;100.00
7660;BME280;3872;47.902;8.162;2023-05-23T06:44:55;91934.78;;;19.51;100.00
7660;BME280;3872;47.902;8.162;2023-05-23T06:47:22;91942.94;;;19.59;100.00
7660;BME280;3872;47.902;8.162;2023-05-23T06:49:49;91937.78;;;19.66;100.00
7660;BME280;3872;47.902;8.162;2023-05-23T06:52:15;91940.66;;;19.76;100.00
7660;BME280;3872;47.902;8.162;2023-05-23T06:54:43;91934.31;;;20.00;100.00
7660;BME280;3872;47.902;8.162;2023-05-23T06:57:10;91947.97;;;20.14;100.00
7660;BME280;3872;47.902;8.162;2023-05-23T06:59:37;91939.44;;;20.24;100.00
7660;BME280;3872;47.902;8.162;2023-05-23T07:02:04;91945.13;;;20.42;100.00
7660;BME280;3872;47.902;8.162;2023-05-23T07:04:30;91945.25;;;20.68;100.00
7660;BME280;3872;47.902;8.162;2023-05-23T07:07:01;91941.59;;;20.77;100.00
7660;BME280;3872;47.902;8.162;2023-05-23T07:09:28;91947.63;;;20.93;100.00
7660;BME280;3872;47.902;8.162;2023-05-23T07:12:06;91949.78;;;20.64;100.00
7660;BME280;3872;47.902;8.162;2023-05-23T07:14:35;91949.47;;;21.31;100.00
7660;BME280;3872;47.902;8.162;2023-05-23T07:17:03;91946.25;;;21.71;100.00
7660;BME280;3872;47.902;8.162;2023-05-23T07:19:30;91936.06;;;21.80;95.45
7660;BME280;3872;47.902;8.162;2023-05-23T07:21:57;91946.28;;;21.25;100.00
7660;BME280;3872;47.902;8.162;2023-05-23T07:24:23;91947.19;;;19.94;100.00
7660;BME280;3872;47.902;8.162;2023-05-23T07:26:50;91948.81;;;20.95;100.00
7660;BME280;3872;47.902;8.162;2023-05-23T07:29:18;91954.00;;;20.65;100.00
7660;BME280;3872;47.902;8.162;2023-05-23T07:31:46;91956.22;;;21.02;100.00
7660;BME280;3872;47.902;8.162;2023-05-23T07:34:13;91957.22;;;19.82;100.00
7660;BME280;3872;47.902;8.162;2023-05-23T07:36:49;91957.19;;;20.94;100.00
7660;BME280;3872;47.902;8.162;2023-05-23T07:39:16;91963.94;;;19.13;100.00
7660;BME280;3872;47.902;8.162;2023-05-23T07:41:47;91962.03;;;18.54;100.00
7660;BME280;3872;47.902;8.162;2023-05-23T07:44:15;91962.69;;;18.79;100.00
7660;BME280;3872;47.902;8.162;2023-05-23T07:46:43;91965.88;;;19.60;100.00
7660;BME280;3872;47.902;8.162;2023-05-23T07:49:09;91964.81;;;20.34;100.00
7660;BME280;3872;47.902;8.162;2023-05-23T07:51:36;91964.69;;;20.11;100.00
7660;BME280;3872;47.902;8.162;2023-05-23T07:54:04;91967.59;;;20.99;100.00
7660;BME280;3872;47.902;8.162;2023-05-23T07:56:31;91962.84;;;21.31;100.00
7660;BME280;3872;47.902;8.162;2023-05-23T07:58:57;91959.31;;;21.49;99.08
7660;BME280;3872;47.902;8.162;2023-05-23T08:01:24;91960.56;;;21.33;100.00
7660;BME280;3872;47.902;8.162;2023-05-23T08:04:13;91960.84;;;21.24;100.00
7660;BME280;3872;47.902;8.162;2023-05-23T08:06:48;91965.78;;;21.03;100.00
7660;BME280;3872;47.902;8.162;2023-05-23T08:09:15;91959.28;;;21.23;98.20
7660;BME280;3872;47.902;8.162;2023-05-23T08:11:47;91957.16;;;21.13;100.00
7660;BME280;3872;47.902;8.162;2023-05-23T08:14:14;91961.84;;;20.20;100.00
7660;BME280;3872;47.902;8.162;2023-05-23T08:17:13;91966.38;;;21.16;100.00
7660;BME280;3872;47.902;8.162;2023-05-23T08:19:42;91961.41;;;21.60;96.46
7660;BME280;3872;47.902;8.162;2023-05-23T08:22:09;91959.88;;;22.11;86.68
7660;BME280;3872;47.902;8.162;2023-05-23T08:24:35;91962.09;;;22.06;91.26
7660;BME280;3872;47.902;8.162;2023-05-23T08:27:03;91958.00;;;21.40;98.26
7660;BME280;3872;47.902;8.162;2023-05-23T08:29:31;91964.41;;;22.67;86.35
7660;BME280;3872;47.902;8.162;2023-05-23T08:31:59;91959.28;;;23.22;80.24
7660;BME280;3872;47.902;8.162;2023-05-23T08:34:26;91960.63;;;23.90;78.58
7660;BME280;3872;47.902;8.162;2023-05-23T08:36:54;91954.75;;;24.21;70.88
7660;BME280;3872;47.902;8.162;2023-05-23T08:39:20;91958.31;;;23.03;76.36
7660;BME280;3872;47.902;8.162;2023-05-23T08:41:53;91963.03;;;22.47;85.25
7660;BME280;3872;47.902;8.162;2023-05-23T08:44:20;91952.28;;;22.73;78.96
7660;BME280;3872;47.902;8.162;2023-05-23T08:46:52;91963.00;;;21.64;91.39
7660;BME280;3872;47.902;8.162;2023-05-23T08:49:39;91966.81;;;20.37;100.00
7660;BME280;3872;47.902;8.162;2023-05-23T08:52:10;91955.75;;;21.65;88.62
7660;BME280;3872;47.902;8.162;2023-05-23T08:54:39;91970.44;;;20.87;93.48
7660;BME280;3872;47.902;8.162;2023-05-23T08:57:06;91960.34;;;21.41;84.43
7660;BME280;3872;47.902;8.162;2023-05-23T08:59:39;91962.66;;;22.18;78.05
7660;BME280;3872;47.902;8.162;2023-05-23T09:02:07;91959.22;;;22.48;73.70
7660;BME280;3872;47.902;8.162;2023-05-23T09:04:36;91955.22;;;22.68;73.85
7660;BME280;3872;47.902;8.162;2023-05-23T09:07:11;91954.06;;;23.80;62.85
7660;BME280;3872;47.902;8.162;2023-05-23T09:09:38;91959.91;;;24.51;57.35
7660;BME280;3872;47.902;8.162;2023-05-23T09:12:07;91956.91;;;24.05;59.28
7660;BME280;3872;47.902;8.162;2023-05-23T09:14:35;91959.34;;;22.58;65.93
7660;BME280;3872;47.902;8.162;2023-05-23T09:17:06;91964.19;;;21.93;69.64
7660;BME280;3872;47.902;8.162;2023-05-23T09:19:32;91962.34;;;21.71;72.55
7660;BME280;3872;47.902;8.162;2023-05-23T09:22:13;91961.34;;;21.82;73.18
7660;BME280;3872;47.902;8.162;2023-05-23T09:24:55;91966.66;;;21.79;74.36
7660;BME280;3872;47.902;8.162;2023-05-23T09:27:22;91968.16;;;20.66;89.32
7660;BME280;3872;47.902;8.162;2023-05-23T09:29:49;91969.16;;;21.68;76.49
7660;BME280;3872;47.902;8.162;2023-05-23T09:32:18;91970.25;;;22.13;75.22
7660;BME280;3872;47.902;8.162;2023-05-23T09:34:56;91978.22;;;22.36;71.00
7660;BME280;3872;47.902;8.162;2023-05-23T09:37:28;91976.66;;;22.35;71.95
7660;BME280;3872;47.902;8.162;2023-05-23T09:39:56;91971.38;;;23.42;63.34
7660;BME280;3872;47.902;8.162;2023-05-23T09:42:22;91971.94;;;23.58;64.22
7660;BME280;3872;47.902;8.162;2023-05-23T09:44:49;91963.75;;;23.95;65.24
7660;BME280;3872;47.902;8.162;2023-05-23T09:47:16;91969.97;;;23.55;64.90
7660;BME280;3872;47.902;8.162;2023-05-23T09:49:43;91966.41;;;23.44;65.26
7660;BME280;3872;47.902;8.162;2023-05-23T09:52:09;91977.72;;;22.56;69.80
7660;BME280;3872;47.902;8.162;2023-05-23T09:54:38;91968.91;;;23.67;61.61
7660;BME280;3872;47.902;8.162;2023-05-23T09:57:08;91961.81;;;24.50;58.95
7660;BME280;3872;47.902;8.162;2023-05-23T09:59:39;91967.22;;;24.57;60.61
7660;BME280;3872;47.902;8.162;2023-05-23T10:02:10;91963.94;;;24.24;61.74
7660;BME280;3872;47.902;8.162;2023-05-23T10:04:38;91976.97;;;23.26;63.12
7660;BME280;3872;47.902;8.162;2023-05-23T10:07:11;91983.75;;;22.20;73.29
7660;BME280;3872;47.902;8.162;2023-05-23T10:09:44;91979.00;;;22.70;70.84
7660;BME280;3872;47.902;8.162;2023-05-23T10:12:38;91970.94;;;23.36;64.41
7660;BME280;3872;47.902;8.162;2023-05-23T10:15:08;91971.56;;;24.83;58.11
7660;BME280;3872;47.902;8.162;2023-05-23T10:17:39;91967.34;;;24.17;61.92
7660;BME280;3872;47.902;8.162;2023-05-23T10:20:13;91962.44;;;25.16;56.23
7660;BME280;3872;47.902;8.162;2023-05-23T10:22:41;91961.78;;;25.62;54.55
7660;BME280;3872;47.902;8.162;2023-05-23T10:25:09;91958.28;;;25.58;54.62
7660;BME280;3872;47.902;8.162;2023-05-23T10:27:36;91963.88;;;21.72;69.75
7660;BME280;3872;47.902;8.162;2023-05-23T10:30:04;91963.78;;;22.44;67.38
7660;BME280;3872;47.902;8.162;2023-05-23T10:32:31;91965.44;;;23.26;62.60
7660;BME280;3872;47.902;8.162;2023-05-23T10:35:01;91970.28;;;22.46;62.26
7660;BME280;3872;47.902;8.162;2023-05-23T10:37:35;91956.84;;;23.94;57.08
7660;BME280;3872;47.902;8.162;2023-05-23T10:40:09;91951.47;;;23.06;59.85
7660;BME280;3872;47.902;8.162;2023-05-23T10:42:48;91942.13;;;26.04;50.63
7660;BME280;3872;47.902;8.162;2023-05-23T10:45:19;91946.00;;;25.78;50.11
7660;BME280;3872;47.902;8.162;2023-05-23T10:47:47;91943.97;;;24.25;55.05
7660;BME280;3872;47.902;8.162;2023-05-23T10:50:29;91952.53;;;24.41;59.84
7660;BME280;3872;47.902;8.162;2023-05-23T10:52:58;91947.19;;;22.68;68.44
7660;BME280;3872;47.902;8.162;2023-05-23T10:55:25;91944.09;;;23.40;66.18
7660;BME280;3872;47.902;8.162;2023-05-23T10:58:14;91953.44;;;22.46;69.78
7660;BME280;3872;47.902;8.162;2023-05-23T11:00:50;91953.06;;;24.75;60.57
7660;BME280;3872;47.902;8.162;2023-05-23T11:03:17;91948.16;;;25.02;55.44
7660;BME280;3872;47.902;8.162;2023-05-23T11:05:46;91959.38;;;22.32;65.89
7660;BME280;3872;47.902;8.162;2023-05-23T11:08:13;91948.25;;;24.33;61.07
7660;BME280;3872;47.902;8.162;2023-05-23T11:10:52;91946.59;;;24.90;57.01
7660;BME280;3872;47.902;8.162;2023-05-23T11:13:20;91943.69;;;25.91;52.09
7660;BME280;3872;47.902;8.162;2023-05-23T11:15:47;91951.75;;;25.73;53.93
7660;BME280;3872;47.902;8.162;2023-05-23T11:18:26;91954.00;;;25.28;52.73
7660;BME280;3872;47.902;8.162;2023-05-23T11:20:53;91947.44;;;25.12;54.44
7660;BME280;3872;47.902;8.162;2023-05-23T11:23:21;91955.06;;;23.24;60.21
7660;BME280;3872;47.902;8.162;2023-05-23T11:25:48;91963.38;;;23.09;64.86
7660;BME280;3872;47.902;8.162;2023-05-23T11:28:16;91959.47;;;23.02;68.57
7660;BME280;3872;47.902;8.162;2023-05-23T11:30:47;91963.16;;;22.27;73.37
7660;BME280;3872;47.902;8.162;2023-05-23T11:33:14;91969.28;;;21.98;76.89
7660;BME280;3872;47.902;8.162;2023-05-23T11:35:44;91966.00;;;21.85;76.87
7660;BME280;3872;47.902;8.162;2023-05-23T11:38:13;91956.25;;;22.56;73.94
7660;BME280;3872;47.902;8.162;2023-05-23T11:40:40;91955.81;;;24.13;64.41
7660;BME280;3872;47.902;8.162;2023-05-23T11:43:08;91950.34;;;23.48;61.90
7660;BME280;3872;47.902;8.162;2023-05-23T11:45:36;91966.00;;;21.85;73.30
7660;BME280;3872;47.902;8.162;2023-05-23T11:48:06;91960.34;;;23.14;67.20
7660;BME280;3872;47.902;8.162;2023-05-23T11:50:33;91953.63;;;25.26;56.74
7660;BME280;3872;47.902;8.162;2023-05-23T11:53:00;91947.50;;;26.29;55.88
7660;BME280;3872;47.902;8.162;2023-05-23T11:55:27;91945.97;;;25.96;52.66
7660;BME280;3872;47.902;8.162;2023-05-23T11:57:55;91944.28;;;26.66;52.20
7660;BME280;3872;47.902;8.162;2023-05-23T12:00:21;91957.22;;;24.54;55.80
7660;BME280;3872;47.902;8.162;2023-05-23T12:02:48;91958.34;;;23.92;61.74
7660;BME280;3872;47.902;8.162;2023-05-23T12:05:16;91949.28;;;22.82;64.88
7660;BME280;3872;47.902;8.162;2023-05-23T12:07:43;91952.19;;;24.49;57.91
7660;BME280;3872;47.902;8.162;2023-05-23T12:10:11;91945.56;;;26.01;56.14
7660;BME280;3872;47.902;8.162;2023-05-23T12:12:39;91941.75;;;24.34;62.30
7660;BME280;3872;47.902;8.162;2023-05-23T12:15:07;91943.03;;;24.68;61.12
7660;BME280;3872;47.902;8.162;2023-05-23T12:17:35;91944.91;;;22.37;71.13
7660;BME280;3872;47.902;8.162;2023-05-23T12:20:02;91944.97;;;23.11;68.69
7660;BME280;3872;47.902;8.162;2023-05-23T12:22:30;91932.50;;;23.29;69.10
7660;BME280;3872;47.902;8.162;2023-05-23T12:24:57;91949.41;;;22.92;68.81
7660;BME280;3872;47.902;8.162;2023-05-23T12:27:27;91949.47;;;22.99;65.36
7660;BME280;3872;47.902;8.162;2023-05-23T12:30:06;91947.72;;;23.55;64.24
7660;BME280;3872;47.902;8.162;2023-05-23T12:32:33;91950.38;;;23.51;65.04
7660;BME280;3872;47.902;8.162;2023-05-23T12:35:00;91946.38;;;23.38;65.65
7660;BME280;3872;47.902;8.162;2023-05-23T12:37:27;91946.06;;;23.43;62.00
7660;BME280;3872;47.902;8.162;2023-05-23T12:39:56;91955.13;;;25.10;54.79
7660;BME280;3872;47.902;8.162;2023-05-23T12:42:22;91954.81;;;25.54;55.07
7660;BME280;3872;47.902;8.162;2023-05-23T12:44:52;91933.13;;;26.60;50.87
7660;BME280;3872;47.902;8.162;2023-05-23T12:47:19;91941.34;;;25.96;53.19
7660;BME280;3872;47.902;8.162;2023-05-23T12:49:45;91942.06;;;25.29;54.31
7660;BME280;3872;47.902;8.162;2023-05-23T12:52:12;91935.31;;;27.66;45.82
7660;BME280;3872;47.902;8.162;2023-05-23T12:54:38;91944.50;;;24.51;53.46
7660;BME280;3872;47.902;8.162;2023-05-23T12:57:06;91943.41;;;22.73;60.22
7660;BME280;3872;47.902;8.162;2023-05-23T12:59:33;91935.75;;;24.00;56.73
7660;BME280;3872;47.902;8.162;2023-05-23T13:02:00;91947.88;;;23.72;58.26
7660;BME280;3872;47.902;8.162;2023-05-23T13:04:26;91943.69;;;22.94;62.55
7660;BME280;3872;47.902;8.162;2023-05-23T13:06:53;91943.38;;;24.56;53.94
7660;BME280;3872;47.902;8.162;2023-05-23T13:09:19;91936.28;;;25.17;53.79
7660;BME280;3872;47.902;8.162;2023-05-23T13:11:46;91933.53;;;26.62;49.79
7660;BME280;3872;47.902;8.162;2023-05-23T13:14:14;91937.22;;;27.66;48.41
7660;BME280;3872;47.902;8.162;2023-05-23T13:16:40;91934.78;;;25.94;48.30
7660;BME280;3872;47.902;8.162;2023-05-23T13:19:07;91945.91;;;25.25;54.45
7660;BME280;3872;47.902;8.162;2023-05-23T13:21:33;91939.59;;;24.71;54.27
7660;BME280;3872;47.902;8.162;2023-05-23T13:24:00;91942.41;;;24.92;53.96